Time;durP1;ratioP1;P1;durP2;ratioP2;P2;SDS_P1;SDS_P2;PMS_P1;PMS_P2;Temp;Humidity;BMP_temperature;BMP_pressure;BME280_temperature;BME280_humidity;BME280_pressure;Samples;Min_cycle;Max_cycle;Signal;HPM_P1;HPM_P2
2023/01/18 00:00:12;;;;;;;6.97;4.67;;;0.80;99.90;;;;;;5009148;28;20282;-48
2023/01/18 00:02:39;;;;;;;5.17;4.50;;;0.80;99.90;;;;;;5010499;28;20223;-50
2023/01/18 00:05:08;;;;;;;5.87;5.37;;;0.80;99.90;;;;;;5011070;28;20254;-50
2023/01/18 00:07:35;;;;;;;8.00;4.43;;;0.70;99.90;;;;;;5014379;28;20634;-50
2023/01/18 00:10:02;;;;;;;9.23;5.37;;;0.70;99.90;;;;;;5010949;28;20209;-50
2023/01/18 00:12:29;;;;;;;3.67;3.37;;;0.70;99.90;;;;;;5011953;28;20211;-50
2023/01/18 00:14:56;;;;;;;4.57;4.17;;;0.70;99.90;;;;;;5011685;28;20235;-50
2023/01/18 00:17:23;;;;;;;6.27;4.47;;;0.70;99.90;;;;;;5011355;28;20269;-49
2023/01/18 00:19:50;;;;;;;7.80;5.20;;;0.70;99.90;;;;;;5014206;28;20205;-49
2023/01/18 00:22:18;;;;;;;5.33;4.83;;;0.60;99.90;;;;;;5013778;28;20223;-50
2023/01/18 00:24:45;;;;;;;8.40;4.17;;;0.70;99.90;;;;;;5011560;28;20224;-49
2023/01/18 00:27:12;;;;;;;7.30;3.93;;;0.70;99.90;;;;;;5011773;28;20242;-49
2023/01/18 00:29:39;;;;;;;6.13;4.60;;;0.60;99.90;;;;;;5014403;28;20574;-49
2023/01/18 00:32:06;;;;;;;4.57;4.17;;;0.60;99.90;;;;;;5012681;28;20699;-50
2023/01/18 00:34:33;;;;;;;6.50;4.67;;;0.60;99.90;;;;;;5013949;28;20220;-49
2023/01/18 00:37:00;;;;;;;5.10;4.60;;;0.50;99.90;;;;;;5011166;28;20203;-50
2023/01/18 00:39:29;;;;;;;4.43;3.60;;;0.50;99.90;;;;;;5014208;28;20216;-50
2023/01/18 00:44:36;;;;;;;4.87;4.37;;;0.50;99.90;;;;;;4984140;28;20221;-49
2023/01/18 00:47:03;;;;;;;7.87;4.17;;;0.40;99.90;;;;;;5011552;28;20204;-50
2023/01/18 00:49:30;;;;;;;6.13;3.83;;;0.50;99.90;;;;;;5013935;28;20200;-49
2023/01/18 00:51:59;;;;;;;9.20;5.10;;;0.40;99.90;;;;;;4994518;28;20686;-50
2023/01/18 00:54:26;;;;;;;4.13;3.77;;;0.40;99.90;;;;;;5008734;28;20233;-50
2023/01/18 00:56:54;;;;;;;6.30;4.17;;;0.40;99.90;;;;;;5010872;28;20266;-50
2023/01/18 00:59:21;;;;;;;6.70;4.90;;;0.40;99.90;;;;;;5012572;28;20731;-50
2023/01/18 01:01:48;;;;;;;5.73;4.40;;;0.40;99.90;;;;;;5013597;28;20741;-49
2023/01/18 01:06:59;;;;;;;5.13;4.57;;;0.40;99.90;;;;;;5011076;28;20203;-49
2023/01/18 01:09:28;;;;;;;7.67;5.30;;;0.30;99.90;;;;;;5013484;28;20772;-50
2023/01/18 01:26:09;;;;;;;5.53;4.30;;;0.40;99.90;;;;;;5007285;28;20255;-49
2023/01/18 01:28:39;;;;;;;5.27;4.53;;;0.40;99.90;;;;;;4993434;28;20220;-50
2023/01/18 01:31:08;;;;;;;4.93;3.80;;;0.40;99.90;;;;;;5002794;28;20282;-50
2023/01/18 01:33:36;;;;;;;4.87;4.47;;;0.40;99.90;;;;;;5010518;28;20360;-49
2023/01/18 01:36:06;;;;;;;4.53;4.13;;;0.40;99.90;;;;;;5005758;28;20256;-50
2023/01/18 01:38:33;;;;;;;4.40;4.00;;;0.40;99.90;;;;;;5012297;28;20200;-49
2023/01/18 01:41:03;;;;;;;4.77;4.30;;;0.50;99.90;;;;;;5011622;28;20673;-50
2023/01/18 01:43:48;;;;;;;5.50;5.00;;;0.50;99.90;;;;;;5003783;28;20236;-48
2023/01/18 01:46:44;;;;;;;4.50;4.10;;;0.50;99.90;;;;;;5007423;28;20622;-49
2023/01/18 01:49:14;;;;;;;4.83;4.27;;;0.50;99.90;;;;;;5003611;28;20261;-48
2023/01/18 01:51:44;;;;;;;5.67;4.40;;;0.60;99.90;;;;;;5011998;28;20222;-48
2023/01/18 01:54:14;;;;;;;5.10;4.40;;;0.60;99.90;;;;;;5011329;28;20314;-49
2023/01/18 01:56:42;;;;;;;4.93;4.17;;;0.60;99.90;;;;;;5012544;28;20632;-48
2023/01/18 01:59:11;;;;;;;5.87;4.30;;;0.60;99.90;;;;;;5012536;28;20204;-49
2023/01/18 02:01:42;;;;;;;6.20;4.27;;;0.60;99.90;;;;;;5012671;28;20216;-49
2023/01/18 02:04:10;;;;;;;5.63;4.37;;;0.60;99.90;;;;;;5011479;28;20304;-48
2023/01/18 02:06:39;;;;;;;7.60;4.27;;;0.60;99.90;;;;;;5010136;28;20266;-49
2023/01/18 02:09:08;;;;;;;5.53;5.00;;;0.60;99.90;;;;;;5010528;28;20209;-50
2023/01/18 02:11:36;;;;;;;5.90;4.83;;;0.70;99.90;;;;;;5011383;28;20203;-48
2023/01/18 02:14:09;;;;;;;4.07;3.70;;;0.70;99.90;;;;;;5002714;28;20215;-49
2023/01/18 02:16:52;;;;;;;4.70;4.30;;;0.70;99.90;;;;;;5012672;28;20281;-48
2023/01/18 02:19:50;;;;;;;6.13;4.37;;;0.80;99.90;;;;;;5011763;28;20265;-49
2023/01/18 02:22:34;;;;;;;4.60;4.20;;;0.90;99.90;;;;;;4962467;28;20777;-47
2023/01/18 02:25:27;;;;;;;6.13;4.50;;;0.80;99.90;;;;;;5011352;28;20270;-48
2023/01/18 02:28:06;;;;;;;4.40;4.00;;;0.90;99.90;;;;;;5010920;28;20200;-48
2023/01/18 02:30:40;;;;;;;7.17;4.80;;;0.80;99.90;;;;;;5012215;28;20657;-48
2023/01/18 02:33:13;;;;;;;9.63;4.40;;;0.70;99.90;;;;;;4999672;28;20212;-50
2023/01/18 02:35:50;;;;;;;6.17;4.77;;;0.70;99.90;;;;;;5008245;28;20213;-48
2023/01/18 02:38:23;;;;;;;5.33;4.83;;;0.80;99.90;;;;;;5011771;28;20213;-49
2023/01/18 02:41:04;;;;;;;4.97;4.30;;;0.70;99.90;;;;;;5010948;28;20217;-48
2023/01/18 02:46:32;;;;;;;4.63;4.23;;;0.70;99.90;;;;;;5004910;28;20221;-48
2023/01/18 02:49:01;;;;;;;5.93;4.50;;;0.70;99.90;;;;;;5003860;28;20216;-48
2023/01/18 02:51:28;;;;;;;4.67;4.27;;;0.80;99.90;;;;;;5003659;28;20287;-48
2023/01/18 02:53:56;;;;;;;6.63;5.57;;;0.80;99.90;;;;;;5010374;28;20288;-48
2023/01/18 02:56:28;;;;;;;3.90;3.50;;;0.70;99.90;;;;;;5011710;28;20259;-49
2023/01/18 02:59:03;;;;;;;9.00;5.00;;;0.70;99.90;;;;;;5009856;28;20203;-48
2023/01/18 03:01:34;;;;;;;7.03;4.60;;;0.70;99.90;;;;;;5010939;28;20578;-49
2023/01/18 03:04:05;;;;;;;5.80;4.37;;;0.80;99.90;;;;;;5051799;22;20229;-50
2023/01/18 03:06:33;;;;;;;10.10;5.43;;;0.80;99.90;;;;;;5050229;28;20257;-49
2023/01/18 03:09:01;;;;;;;4.87;4.40;;;0.80;99.90;;;;;;5051465;28;20261;-49
2023/01/18 03:11:38;;;;;;;4.33;3.93;;;0.80;99.90;;;;;;5048622;28;20260;-49
2023/01/18 03:14:18;;;;;;;5.30;3.53;;;0.80;99.90;;;;;;5043886;28;20271;-49
2023/01/18 03:16:57;;;;;;;5.13;4.10;;;0.80;99.90;;;;;;5051947;28;20204;-50
2023/01/18 03:23:36;;;;;;;4.20;3.83;;;0.70;99.90;;;;;;5050338;28;20213;-49
2023/01/18 03:25:15;;;;;;;4.23;3.87;;;0.70;99.90;;;;;;5050935;28;20278;-49
2023/01/18 03:36:08;;;;;;;4.53;2.97;;;0.80;99.90;;;;;;5049874;28;20198;-50
2023/01/18 03:38:38;;;;;;;3.70;3.37;;;0.90;99.90;;;;;;5049734;28;20286;-49
2023/01/18 03:41:08;;;;;;;3.57;3.23;;;1.00;99.90;;;;;;5050813;28;20205;-48
2023/01/18 03:43:36;;;;;;;4.00;3.60;;;1.10;99.90;;;;;;5051337;28;20693;-50
2023/01/18 03:46:06;;;;;;;4.50;4.13;;;1.10;99.90;;;;;;5051836;28;20210;-49
2023/01/18 03:48:36;;;;;;;6.43;3.70;;;1.10;99.90;;;;;;5048829;28;20582;-50
2023/01/18 03:51:10;;;;;;;3.50;3.20;;;1.10;99.90;;;;;;5043627;28;20202;-50
2023/01/18 03:53:42;;;;;;;3.63;3.00;;;1.10;99.90;;;;;;5050357;28;20218;-50
2023/01/18 03:56:16;;;;;;;4.00;3.40;;;1.10;99.90;;;;;;5048458;28;20259;-49
2023/01/18 03:58:44;;;;;;;6.37;3.83;;;1.10;99.90;;;;;;5051397;28;20232;-49
2023/01/18 04:01:13;;;;;;;4.07;2.83;;;1.10;99.90;;;;;;5047935;28;20216;-49
2023/01/18 04:03:40;;;;;;;4.00;3.60;;;1.10;99.90;;;;;;5050969;28;20227;-49
2023/01/18 04:06:08;;;;;;;5.60;3.93;;;1.10;99.90;;;;;;5050801;28;20255;-50
2023/01/18 04:08:35;;;;;;;6.23;3.80;;;1.10;99.90;;;;;;5051262;28;20201;-49
2023/01/18 04:11:02;;;;;;;4.77;3.90;;;1.10;99.90;;;;;;5050452;28;20200;-49
2023/01/18 04:13:29;;;;;;;6.03;3.70;;;1.00;99.90;;;;;;5051441;28;20216;-50
2023/01/18 04:15:56;;;;;;;4.73;4.13;;;0.90;99.90;;;;;;5047706;28;20256;-49
2023/01/18 04:18:24;;;;;;;4.83;4.37;;;1.00;99.90;;;;;;5050942;28;20203;-49
2023/01/18 04:20:55;;;;;;;3.83;2.63;;;1.00;99.90;;;;;;5042400;28;20207;-50
2023/01/18 04:23:22;;;;;;;3.80;3.50;;;1.00;99.90;;;;;;5049428;28;20313;-50
2023/01/18 04:25:50;;;;;;;4.70;3.93;;;1.10;99.90;;;;;;5051250;28;20283;-49
2023/01/18 04:28:24;;;;;;;3.27;3.07;;;1.00;99.90;;;;;;5049975;28;20202;-48
2023/01/18 04:30:51;;;;;;;5.03;3.30;;;1.10;99.90;;;;;;5048429;28;20462;-49
2023/01/18 04:33:19;;;;;;;3.57;2.90;;;1.10;99.90;;;;;;5050955;28;20724;-49
2023/01/18 04:35:48;;;;;;;2.77;2.57;;;1.10;99.90;;;;;;5051042;28;20206;-49
2023/01/18 04:38:15;;;;;;;5.57;3.80;;;1.10;99.90;;;;;;5049957;28;20629;-48
2023/01/18 04:40:42;;;;;;;4.37;3.57;;;1.10;99.90;;;;;;5047408;28;20655;-49
2023/01/18 04:43:09;;;;;;;3.93;3.63;;;1.10;99.90;;;;;;5048724;28;20270;-49
2023/01/18 04:45:36;;;;;;;3.97;3.60;;;1.10;99.90;;;;;;5043501;28;20209;-49
2023/01/18 04:48:04;;;;;;;5.77;3.67;;;1.10;99.90;;;;;;5030943;28;20206;-49
2023/01/18 04:50:31;;;;;;;4.27;3.17;;;1.10;99.90;;;;;;5032400;28;21446;-50
2023/01/18 04:52:59;;;;;;;3.83;3.47;;;1.20;99.90;;;;;;5050569;28;20245;-49
2023/01/18 04:55:26;;;;;;;4.27;3.40;;;1.10;99.90;;;;;;5053996;28;20208;-50
2023/01/18 04:57:56;;;;;;;3.50;3.30;;;1.10;99.90;;;;;;5054507;28;20204;-49
2023/01/18 05:00:23;;;;;;;5.07;3.40;;;1.00;99.90;;;;;;5049977;28;20206;-49
2023/01/18 05:02:50;;;;;;;2.73;2.60;;;1.10;99.90;;;;;;5050287;28;20259;-49
2023/01/18 05:05:17;;;;;;;4.37;3.83;;;1.00;99.90;;;;;;5054265;28;20230;-48
2023/01/18 05:07:44;;;;;;;4.33;3.97;;;1.10;99.90;;;;;;5054249;28;20261;-50
2023/01/18 05:10:13;;;;;;;4.77;4.37;;;1.10;99.90;;;;;;5052792;28;20256;-49
2023/01/18 05:12:41;;;;;;;4.13;3.37;;;1.10;99.90;;;;;;5054430;28;20313;-49
2023/01/18 05:15:09;;;;;;;4.63;3.63;;;1.10;99.90;;;;;;5054071;28;20222;-49
2023/01/18 05:17:36;;;;;;;3.57;3.27;;;1.10;99.90;;;;;;5054262;28;20202;-48
2023/01/18 05:20:06;;;;;;;4.10;3.80;;;1.10;99.90;;;;;;5048886;28;20199;-48
2023/01/18 05:22:35;;;;;;;7.67;3.27;;;1.10;99.90;;;;;;5050987;28;20201;-48
2023/01/18 05:25:02;;;;;;;4.27;3.87;;;1.10;99.90;;;;;;5054150;28;20226;-49
2023/01/18 05:27:31;;;;;;;3.90;3.23;;;1.20;99.90;;;;;;5053936;28;20670;-48
2023/01/18 05:29:58;;;;;;;7.10;3.67;;;1.20;99.90;;;;;;5052005;28;20206;-48
2023/01/18 05:32:25;;;;;;;3.57;2.57;;;1.20;99.90;;;;;;5050380;28;20206;-49
2023/01/18 05:34:52;;;;;;;3.70;2.47;;;1.30;99.90;;;;;;5051797;28;20599;-49
2023/01/18 05:37:19;;;;;;;3.40;3.10;;;1.40;99.90;;;;;;5053019;28;20205;-47
2023/01/18 05:39:46;;;;;;;3.20;2.90;;;1.40;99.90;;;;;;5045115;28;20256;-48
2023/01/18 05:42:14;;;;;;;3.57;2.63;;;1.50;99.90;;;;;;5047881;28;20240;-48
2023/01/18 05:44:43;;;;;;;2.60;2.40;;;1.40;99.90;;;;;;5053728;28;20229;-47
2023/01/18 05:47:12;;;;;;;3.47;3.17;;;1.50;99.90;;;;;;5053544;28;20210;-48
2023/01/18 05:49:39;;;;;;;3.20;2.90;;;1.50;99.90;;;;;;5051731;28;20344;-47
2023/01/18 05:52:07;;;;;;;3.67;3.03;;;1.40;99.90;;;;;;5047053;28;20195;-47
2023/01/18 05:54:34;;;;;;;3.97;2.53;;;1.50;99.90;;;;;;5053838;28;20222;-47
2023/01/18 05:57:01;;;;;;;2.33;2.13;;;1.50;99.90;;;;;;5053530;28;20256;-48
2023/01/18 05:59:28;;;;;;;3.10;2.87;;;1.50;99.90;;;;;;5053428;28;20207;-47
2023/01/18 06:01:57;;;;;;;4.07;2.73;;;1.50;99.90;;;;;;5050087;28;20689;-47
2023/01/18 06:04:24;;;;;;;5.07;2.83;;;1.50;99.90;;;;;;5053187;28;20761;-47
2023/01/18 06:06:51;;;;;;;2.90;2.67;;;1.60;99.90;;;;;;5052198;28;20225;-47
2023/01/18 06:09:19;;;;;;;4.20;2.73;;;1.60;99.90;;;;;;5046342;28;20207;-48
2023/01/18 06:11:45;;;;;;;3.27;2.97;;;1.60;99.90;;;;;;5048250;28;20203;-47
2023/01/18 06:14:13;;;;;;;3.10;2.83;;;1.60;99.90;;;;;;5052516;28;20223;-48
2023/01/18 06:16:40;;;;;;;3.40;3.20;;;1.60;99.90;;;;;;5053587;28;20206;-48
2023/01/18 06:19:09;;;;;;;3.43;3.23;;;1.60;99.90;;;;;;5052180;28;20199;-47
2023/01/18 06:21:36;;;;;;;3.47;3.17;;;1.60;99.90;;;;;;5053057;28;20203;-47
2023/01/18 06:24:03;;;;;;;2.60;2.40;;;1.50;99.90;;;;;;5033087;28;20223;-47
2023/01/18 06:26:30;;;;;;;3.73;2.57;;;1.60;99.90;;;;;;5033206;28;20202;-47
2023/01/18 06:28:57;;;;;;;2.83;2.63;;;1.60;99.90;;;;;;5036959;28;20324;-48
2023/01/18 06:31:24;;;;;;;2.73;2.47;;;1.60;99.90;;;;;;5048665;28;20196;-48
2023/01/18 06:33:51;;;;;;;3.07;2.87;;;1.60;99.90;;;;;;5053201;28;20231;-48
2023/01/18 06:36:20;;;;;;;5.53;3.13;;;1.60;99.90;;;;;;5050842;28;20207;-47
2023/01/18 06:38:47;;;;;;;3.80;3.40;;;1.60;99.90;;;;;;5046408;28;20213;-47
2023/01/18 06:41:14;;;;;;;5.87;4.67;;;1.60;99.90;;;;;;5050524;28;20200;-48
2023/01/18 06:43:41;;;;;;;10.80;6.27;;;1.60;99.90;;;;;;5051217;28;20309;-48
2023/01/18 06:46:09;;;;;;;9.70;6.07;;;1.50;99.90;;;;;;5047939;28;20203;-48
2023/01/18 06:48:36;;;;;;;8.27;6.57;;;1.50;99.90;;;;;;5036354;28;20229;-46
2023/01/18 06:51:03;;;;;;;7.63;5.50;;;1.50;99.90;;;;;;5049494;28;20211;-48
2023/01/18 06:53:32;;;;;;;6.20;4.57;;;1.50;99.90;;;;;;5045108;28;20288;-47
2023/01/18 06:56:00;;;;;;;8.80;4.93;;;1.50;99.90;;;;;;5048467;28;20198;-47
2023/01/18 06:58:29;;;;;;;6.07;3.57;;;1.40;99.90;;;;;;5051805;28;20209;-48
2023/01/18 07:00:57;;;;;;;5.90;4.30;;;1.40;99.90;;;;;;5040892;28;20294;-47
2023/01/18 07:03:25;;;;;;;3.63;3.10;;;1.30;99.90;;;;;;5044330;28;20239;-48
2023/01/18 07:05:53;;;;;;;3.33;3.13;;;1.30;99.90;;;;;;5052345;28;20210;-47
2023/01/18 07:08:20;;;;;;;3.33;3.03;;;1.30;99.90;;;;;;5051403;28;20194;-47
2023/01/18 07:10:51;;;;;;;3.90;3.60;;;1.30;99.90;;;;;;5050847;28;20285;-48
2023/01/18 07:13:18;;;;;;;6.67;4.93;;;1.30;99.90;;;;;;5051835;28;20226;-48
2023/01/18 07:15:46;;;;;;;9.17;6.07;;;1.30;99.90;;;;;;5051839;28;20275;-48
2023/01/18 07:18:14;;;;;;;7.20;6.43;;;1.40;99.90;;;;;;5047601;28;20205;-47
2023/01/18 07:20:41;;;;;;;7.40;3.57;;;1.40;99.90;;;;;;5050101;28;20206;-47
2023/01/18 07:23:08;;;;;;;3.83;3.53;;;1.40;99.90;;;;;;5045063;28;20248;-47
2023/01/18 07:25:35;;;;;;;2.97;2.70;;;1.40;99.90;;;;;;5050678;28;20219;-46
2023/01/18 07:28:04;;;;;;;5.67;2.60;;;1.40;99.90;;;;;;5044820;28;20258;-47
2023/01/18 07:30:31;;;;;;;3.20;2.90;;;1.40;99.90;;;;;;5048639;28;20198;-47
2023/01/18 07:32:58;;;;;;;2.10;1.83;;;1.40;99.90;;;;;;5049522;28;20206;-48
2023/01/18 07:35:26;;;;;;;2.17;2.07;;;1.40;99.90;;;;;;5051496;28;20199;-50
2023/01/18 07:37:53;;;;;;;3.43;2.00;;;1.50;99.90;;;;;;5049184;28;20252;-50
2023/01/18 07:40:21;;;;;;;2.97;1.97;;;1.60;99.90;;;;;;5051430;28;20202;-48
2023/01/18 07:42:48;;;;;;;3.17;2.53;;;1.70;99.90;;;;;;5050151;28;20282;-49
2023/01/18 07:45:16;;;;;;;2.70;2.17;;;1.70;99.90;;;;;;5039889;28;20637;-49
2023/01/18 07:47:45;;;;;;;2.87;2.47;;;1.80;99.90;;;;;;5048761;28;20260;-50
2023/01/18 07:50:12;;;;;;;2.30;2.00;;;1.80;99.90;;;;;;5047913;28;20286;-50
2023/01/18 07:52:40;;;;;;;2.60;2.07;;;1.80;99.90;;;;;;5050837;28;20828;-49
2023/01/18 07:55:07;;;;;;;3.87;2.30;;;1.90;99.90;;;;;;5050771;28;20226;-48
2023/01/18 07:57:34;;;;;;;2.50;2.27;;;1.90;99.90;;;;;;5051026;28;20732;-49
2023/01/18 08:00:02;;;;;;;1.93;1.83;;;1.90;99.90;;;;;;5049780;28;20277;-49
2023/01/18 08:02:30;;;;;;;2.90;2.37;;;1.90;99.90;;;;;;5050512;28;20202;-49
2023/01/18 08:04:57;;;;;;;3.70;3.00;;;1.90;99.90;;;;;;5046640;28;20219;-49
2023/01/18 08:07:24;;;;;;;3.13;2.30;;;1.90;99.90;;;;;;5048975;28;20730;-49
2023/01/18 08:09:51;;;;;;;3.83;2.90;;;2.10;99.90;;;;;;5049012;28;20238;-49
2023/01/18 08:12:18;;;;;;;2.47;2.27;;;2.10;99.90;;;;;;5042096;28;20202;-50
2023/01/18 08:14:45;;;;;;;3.70;2.73;;;2.10;99.90;;;;;;5049914;28;20272;-49
2023/01/18 08:17:15;;;;;;;2.83;2.07;;;2.20;99.90;;;;;;5050746;28;20198;-48
2023/01/18 08:19:44;;;;;;;2.80;2.33;;;2.20;99.90;;;;;;5048192;28;20232;-49
2023/01/18 08:22:11;;;;;;;4.10;2.63;;;2.30;99.90;;;;;;5049884;28;20205;-48
2023/01/18 08:24:38;;;;;;;4.23;2.67;;;2.30;99.90;;;;;;5046866;28;20218;-49
2023/01/18 08:27:05;;;;;;;7.87;3.00;;;2.30;99.90;;;;;;5054488;28;20241;-49
2023/01/18 08:29:32;;;;;;;4.63;2.50;;;2.40;99.90;;;;;;5054831;28;20249;-49
2023/01/18 08:32:01;;;;;;;5.00;2.43;;;2.40;99.90;;;;;;5053232;28;20266;-50
2023/01/18 08:34:28;;;;;;;4.70;2.57;;;2.40;99.90;;;;;;5052930;28;20221;-47
2023/01/18 08:36:56;;;;;;;4.07;2.47;;;2.40;99.90;;;;;;5055205;28;20203;-47
2023/01/18 08:39:23;;;;;;;7.97;2.23;;;2.50;99.90;;;;;;5055006;28;20210;-47
2023/01/18 08:41:51;;;;;;;5.17;2.13;;;2.50;99.90;;;;;;5054138;28;20213;-47
2023/01/18 08:44:18;;;;;;;7.33;2.57;;;2.60;99.90;;;;;;5055338;28;20222;-48
2023/01/18 08:46:45;;;;;;;5.23;3.20;;;2.60;99.90;;;;;;5054495;28;20252;-49
2023/01/18 08:49:12;;;;;;;6.20;2.90;;;2.80;99.90;;;;;;5047352;28;20455;-49
2023/01/18 08:51:39;;;;;;;4.73;2.33;;;2.80;99.90;;;;;;5052308;28;20207;-49
2023/01/18 08:54:08;;;;;;;2.83;2.00;;;2.90;99.90;;;;;;5054553;28;20269;-50
2023/01/18 08:56:35;;;;;;;6.17;2.33;;;3.00;99.90;;;;;;5054737;28;20294;-49
2023/01/18 08:59:02;;;;;;;5.53;2.30;;;3.20;99.90;;;;;;5047615;28;20257;-51
2023/01/18 09:01:29;;;;;;;3.17;2.37;;;3.30;99.90;;;;;;5049986;28;20207;-50
2023/01/18 09:03:57;;;;;;;9.27;3.00;;;3.50;99.90;;;;;;5050978;28;20736;-49
2023/01/18 09:06:25;;;;;;;23.67;9.40;;;3.70;99.90;;;;;;5075282;22;20232;-50
2023/01/18 09:08:52;;;;;;;4.77;3.23;;;3.90;99.90;;;;;;5050223;28;20207;-49
2023/01/18 09:11:20;;;;;;;3.50;2.20;;;3.90;99.90;;;;;;5051814;28;20318;-50
2023/01/18 09:13:47;;;;;;;3.00;2.30;;;4.10;99.90;;;;;;5053123;28;20206;-50
2023/01/18 09:16:15;;;;;;;2.80;1.97;;;4.10;99.90;;;;;;5049778;28;20590;-49
2023/01/18 09:18:42;;;;;;;1.40;1.40;;;4.00;99.90;;;;;;5042285;28;20208;-49
2023/01/18 09:21:10;;;;;;;2.63;1.50;;;3.80;99.90;;;;;;5048107;28;20215;-51
2023/01/18 09:23:38;;;;;;;2.63;2.00;;;3.90;99.90;;;;;;5051920;28;20199;-50
2023/01/18 09:26:08;;;;;;;3.73;1.87;;;3.80;99.90;;;;;;5050550;28;20279;-50
2023/01/18 09:28:37;;;;;;;6.20;2.40;;;3.70;99.90;;;;;;5050999;28;20234;-50
2023/01/18 09:31:07;;;;;;;7.83;2.00;;;3.60;99.90;;;;;;5050413;28;20196;-50
2023/01/18 09:33:34;;;;;;;8.03;2.50;;;3.60;99.90;;;;;;5050291;28;20742;-49
2023/01/18 09:36:04;;;;;;;10.07;3.97;;;3.70;99.90;;;;;;5049717;28;22181;-49
2023/01/18 09:38:32;;;;;;;3.17;2.90;;;3.70;99.90;;;;;;5050166;28;20215;-50
2023/01/18 09:41:01;;;;;;;6.83;3.73;;;3.60;99.90;;;;;;5051148;28;20223;-49
2023/01/18 09:43:30;;;;;;;15.53;5.70;;;3.60;99.90;;;;;;5057719;28;20207;-50
2023/01/18 09:46:00;;;;;;;13.73;5.20;;;3.70;99.90;;;;;;5052598;28;20231;-49
2023/01/18 09:48:31;;;;;;;14.70;6.07;;;3.80;99.90;;;;;;5052408;28;20599;-50
2023/01/18 09:51:02;;;;;;;4.73;3.90;;;3.70;99.90;;;;;;5049043;28;20204;-51
2023/01/18 09:53:50;;;;;;;3.70;3.40;;;3.70;99.90;;;;;;5052658;28;20287;-50
2023/01/18 09:56:21;;;;;;;4.03;2.13;;;3.60;99.90;;;;;;5052289;28;20758;-50
2023/01/18 09:58:59;;;;;;;2.97;1.90;;;3.60;99.90;;;;;;5052491;28;20211;-50
2023/01/18 10:01:31;;;;;;;5.27;1.50;;;3.50;99.90;;;;;;5051606;28;20272;-51
2023/01/18 10:04:02;;;;;;;4.03;2.67;;;3.60;99.90;;;;;;5044436;28;20264;-50
2023/01/18 10:06:32;;;;;;;2.40;2.20;;;3.80;99.90;;;;;;5052064;28;20237;-49
2023/01/18 10:09:03;;;;;;;4.13;2.23;;;4.20;99.90;;;;;;5051991;28;20229;-49
2023/01/18 10:11:35;;;;;;;3.23;2.90;;;4.50;99.90;;;;;;5052249;28;20717;-51
2023/01/18 10:14:07;;;;;;;2.63;2.43;;;4.80;99.90;;;;;;5052168;28;20588;-51
2023/01/18 10:16:37;;;;;;;4.73;2.17;;;4.90;99.90;;;;;;5042554;28;20711;-50
2023/01/18 10:19:13;;;;;;;5.90;3.73;;;4.90;99.90;;;;;;5051955;28;20312;-50
2023/01/18 10:21:51;;;;;;;5.40;3.43;;;4.80;99.90;;;;;;5051432;28;20760;-51
2023/01/18 10:24:29;;;;;;;1.43;1.33;;;4.40;99.90;;;;;;5051743;28;20293;-49
2023/01/18 10:27:09;;;;;;;1.53;0.93;;;3.70;99.90;;;;;;5051810;28;20296;-50
2023/01/18 10:29:49;;;;;;;1.03;1.03;;;3.30;99.90;;;;;;5051848;28;20305;-50
2023/01/18 10:32:20;;;;;;;1.10;1.10;;;3.10;99.90;;;;;;5048130;28;20727;-51
2023/01/18 10:34:50;;;;;;;1.80;1.30;;;3.10;99.90;;;;;;5051332;28;20247;-50
2023/01/18 10:37:29;;;;;;;1.67;1.57;;;3.20;99.90;;;;;;5051567;28;20207;-50
2023/01/18 10:39:59;;;;;;;0.50;0.50;;;3.70;99.90;;;;;;5051546;28;20276;-49
2023/01/18 10:42:30;;;;;;;0.40;0.40;;;4.30;99.90;;;;;;5050540;28;20207;-50
2023/01/18 10:44:57;;;;;;;0.83;0.40;;;4.90;99.90;;;;;;5045032;28;20227;-49
2023/01/18 10:47:26;;;;;;;1.07;0.47;;;4.80;99.90;;;;;;5051452;28;20213;-50
2023/01/18 10:49:58;;;;;;;0.30;0.30;;;4.70;99.90;;;;;;5043131;28;20259;-50
2023/01/18 10:52:27;;;;;;;0.57;0.57;;;4.50;99.90;;;;;;5051150;28;20253;-49
2023/01/18 10:54:58;;;;;;;0.60;0.60;;;4.30;99.90;;;;;;5051228;28;20215;-50
2023/01/18 10:57:30;;;;;;;0.80;0.60;;;4.10;99.90;;;;;;5049982;28;20210;-50
2023/01/18 10:59:58;;;;;;;0.60;0.60;;;3.90;99.90;;;;;;5031219;28;20673;-49
2023/01/18 11:02:30;;;;;;;0.30;0.30;;;3.60;99.90;;;;;;5038965;28;20691;-50
2023/01/18 11:05:07;;;;;;;0.50;0.40;;;3.30;99.90;;;;;;5037178;28;20232;-51
2023/01/18 11:07:34;;;;;;;1.10;1.10;;;3.30;99.90;;;;;;5044243;28;20272;-49
2023/01/18 11:10:08;;;;;;;0.40;0.40;;;3.20;99.90;;;;;;5045289;28;20604;-51
2023/01/18 11:12:42;;;;;;;0.43;0.40;;;3.20;99.90;;;;;;5051155;28;20230;-49
2023/01/18 11:15:24;;;;;;;0.30;0.30;;;3.20;99.90;;;;;;5051353;28;20223;-48
2023/01/18 11:18:05;;;;;;;0.20;0.20;;;3.20;99.90;;;;;;5050958;28;20272;-50
2023/01/18 11:20:36;;;;;;;0.30;0.30;;;3.10;99.90;;;;;;5048891;28;20216;-49
2023/01/18 11:23:07;;;;;;;0.30;0.30;;;3.10;99.90;;;;;;5050940;28;20194;-48
2023/01/18 11:25:39;;;;;;;0.30;0.30;;;3.00;99.90;;;;;;5051225;28;20223;-49
2023/01/18 11:28:18;;;;;;;0.53;0.53;;;3.00;99.90;;;;;;5051036;28;20207;-49
2023/01/18 11:30:52;;;;;;;0.30;0.30;;;3.10;99.90;;;;;;5051202;28;20580;-48
2023/01/18 11:33:22;;;;;;;0.73;0.73;;;3.10;99.90;;;;;;5043200;28;20236;-48
2023/01/18 11:35:57;;;;;;;0.70;0.70;;;3.00;99.90;;;;;;5049826;28;20259;-49
2023/01/18 11:38:31;;;;;;;1.77;0.70;;;2.90;99.90;;;;;;5051213;28;20202;-48
2023/01/18 11:41:12;;;;;;;0.40;0.40;;;2.90;99.90;;;;;;5051073;28;20220;-50
2023/01/18 11:43:41;;;;;;;0.40;0.40;;;2.80;99.90;;;;;;5051213;28;20209;-49
2023/01/18 11:46:35;;;;;;;0.47;0.47;;;2.80;99.90;;;;;;5049711;28;20670;-50
2023/01/18 11:49:20;;;;;;;0.60;0.60;;;2.70;99.90;;;;;;5040048;28;20204;-50
2023/01/18 11:51:54;;;;;;;0.70;0.70;;;2.80;99.90;;;;;;5050733;28;20246;-48
2023/01/18 11:54:27;;;;;;;0.83;0.83;;;2.70;99.90;;;;;;5051260;28;20208;-49
2023/01/18 11:56:58;;;;;;;0.70;0.70;;;2.40;99.90;;;;;;5050946;28;20716;-50
2023/01/18 11:59:29;;;;;;;0.97;0.93;;;2.20;99.90;;;;;;5051324;28;20209;-49
2023/01/18 12:02:31;;;;;;;1.40;1.30;;;2.20;99.90;;;;;;5056301;28;21170;-49
2023/01/18 12:05:27;;;;;;;2.67;1.63;;;2.30;99.90;;;;;;5049633;28;20229;-49
2023/01/18 12:08:17;;;;;;;2.60;1.53;;;2.40;99.90;;;;;;5056649;28;20282;-50
2023/01/18 12:10:54;;;;;;;1.80;1.43;;;2.40;99.90;;;;;;5056914;28;20202;-49
2023/01/18 12:13:34;;;;;;;2.87;1.40;;;2.50;99.90;;;;;;5056700;28;20208;-49
2023/01/18 12:16:12;;;;;;;1.03;1.00;;;2.70;99.90;;;;;;5056009;28;20544;-48
2023/01/18 12:19:07;;;;;;;0.40;0.40;;;2.90;99.90;;;;;;5047996;28;20571;-49
2023/01/18 12:21:46;;;;;;;0.40;0.40;;;3.10;99.90;;;;;;5056067;28;20584;-50
2023/01/18 12:24:37;;;;;;;2.90;1.63;;;3.20;99.90;;;;;;5056504;28;20212;-49
2023/01/18 12:27:15;;;;;;;1.07;1.03;;;3.20;99.90;;;;;;5051791;28;20245;-49
2023/01/18 12:30:03;;;;;;;1.50;1.40;;;3.30;99.90;;;;;;5056390;28;20624;-50
2023/01/18 12:33:01;;;;;;;0.97;0.90;;;3.40;99.90;;;;;;5031717;28;20588;-50
2023/01/18 12:35:59;;;;;;;0.87;0.87;;;3.40;99.90;;;;;;5052820;28;20219;-48
2023/01/18 12:38:31;;;;;;;0.83;0.80;;;3.40;99.90;;;;;;5036098;28;20583;-47
2023/01/18 12:41:29;;;;;;;0.67;0.67;;;3.50;99.90;;;;;;5036964;28;20207;-48
2023/01/18 12:44:15;;;;;;;0.70;0.70;;;3.30;99.90;;;;;;5031343;28;20218;-48
2023/01/18 12:46:52;;;;;;;1.33;1.03;;;3.30;99.90;;;;;;5046867;28;20405;-48
2023/01/18 12:49:21;;;;;;;4.87;2.03;;;3.40;99.90;;;;;;5057137;28;20198;-48
2023/01/18 12:51:52;;;;;;;2.97;2.27;;;3.30;99.90;;;;;;5057172;28;20241;-49
2023/01/18 12:54:27;;;;;;;12.53;3.63;;;3.30;99.90;;;;;;5056973;28;20218;-48
2023/01/18 12:56:57;;;;;;;8.70;3.40;;;3.40;99.90;;;;;;5056881;28;20218;-48
2023/01/18 12:59:29;;;;;;;4.20;2.43;;;3.50;99.90;;;;;;5057108;28;20211;-48
2023/01/18 13:02:02;;;;;;;1.40;1.20;;;3.50;99.90;;;;;;5056575;28;20211;-48
2023/01/18 13:04:34;;;;;;;1.17;0.97;;;3.50;99.90;;;;;;5055763;28;20206;-49
2023/01/18 13:07:06;;;;;;;1.20;1.13;;;3.30;99.90;;;;;;5049466;28;20222;-49
2023/01/18 13:09:40;;;;;;;1.20;1.10;;;3.30;99.90;;;;;;5056817;28;20206;-49
2023/01/18 13:12:08;;;;;;;1.40;1.30;;;3.40;99.90;;;;;;5055883;28;20581;-50
2023/01/18 13:14:44;;;;;;;4.77;1.57;;;3.50;99.90;;;;;;5053396;28;20200;-49
2023/01/18 13:17:21;;;;;;;2.20;1.53;;;3.50;99.90;;;;;;5053390;28;20237;-48
2023/01/18 13:19:53;;;;;;;1.03;1.03;;;3.50;99.90;;;;;;5043832;28;20404;-50
2023/01/18 13:22:27;;;;;;;1.83;1.33;;;3.50;99.90;;;;;;5053376;28;20243;-49
2023/01/18 13:25:21;;;;;;;1.00;1.00;;;3.40;99.90;;;;;;5053663;28;20659;-49
2023/01/18 13:27:59;;;;;;;2.13;1.50;;;3.50;99.90;;;;;;5052977;28;20288;-49
2023/01/18 13:30:27;;;;;;;1.83;1.30;;;3.50;99.90;;;;;;5053152;28;20649;-49
2023/01/18 13:32:55;;;;;;;2.47;1.00;;;3.50;99.90;;;;;;5051997;28;20201;-50
2023/01/18 13:35:30;;;;;;;1.10;1.00;;;3.60;99.90;;;;;;5052100;28;20878;-48
2023/01/18 13:38:00;;;;;;;1.43;0.97;;;3.60;99.90;;;;;;5043947;28;20294;-49
2023/01/18 13:40:37;;;;;;;1.20;1.10;;;3.70;99.90;;;;;;5050551;28;20199;-50
2023/01/18 13:43:05;;;;;;;1.20;1.20;;;3.70;99.90;;;;;;5044981;28;20641;-50
2023/01/18 13:45:48;;;;;;;2.73;1.60;;;3.70;99.90;;;;;;5048639;28;20277;-50
2023/01/18 13:48:41;;;;;;;1.53;1.07;;;3.70;99.90;;;;;;5048323;28;20656;-49
2023/01/18 13:51:09;;;;;;;0.97;0.97;;;3.70;99.90;;;;;;5046685;28;20353;-49